Brookside, Iowa
Current Conditions -  °F | °C
As of 1:54 PM on Thursday 23 Oct 2014 (Local Time) from KALO Reporting Station
Overcast Overcast  
Wind Chill: 54°   Ceiling: 600
Heat Index: 54°   Visibility: 7mi
Dew Point: 52°   Wind: 6mph
Humidity: 93%   Direction: 180°S
Pressure: 30.03"   Gusts: NA
Location:  42.5035°N, 92.4936°W
Report Text: KALO 231854Z 18005KT 7SM OVC006 12/11 A3003 RMK AO2 SLP170 T01220111
Loading
Personal Weather Stations






























Interactive Weather Map
Tropical Storm Tracking
New forecast layout! Learn more

10-Day Weather Forecast

Advertisements
Track Severe Weather on mobile